Historyczne dane pomiarowe

Dodano dane terminowe – wersja testowa.

Dane z okresu 1951-2018

Wersja bazy: 1.29 [2019-01-10, lista zmian], aktualizacja planowana na 2019-02-07

Dane meteo z obszaru Polski uzyskane na podstawie danych udostępnionych przez Instytut Meteorologii i Gospodarki Wodnej – Państwowy Instytut Badawczy.

 

Wybierz Datę:    

       

TemperaturaWilgotnośćWiatrCiśnienieOpadyŚniegCzas trwania zjawisk
 Stacja t tx tn tng RH VA  wxwx mslp ppp RRR   cm mm wxwxwxwxwxwxwx
1990-12-13 0.6 1.4 -1.3 -4.5 96.0- 8.0 1.3---- 0.1------------
1990-12-14 0.3 0.9 -0.5 -0.4 95.5- 8.0 2.0---- 1.2------------
1990-12-15 0.0 0.6 -0.6 -0.9 94.3- 8.0 1.3---- 0.0-- 1---------
1990-12-16 -0.1 0.6 -0.8 -1.2 90.0- 8.0 1.0---- 0.0-- 1---------
1990-12-17 -0.9 -0.1 -2.1 -1.9 92.3- 8.0 1.0---- 0.0-- 1---------
1990-12-18 -0.6 0.1 -1.5 -1.3 93.3- 8.0 1.3---- 0.1-- 1---------
1990-12-19 -0.2 0.5 -1.2 -2.8 93.5- 7.3 1.3---- 0.0-- 1---------
1990-12-20 -0.6 0.5 -2.9 -6.1 81.8- 8.0 3.3---- 0.0-- 1---------
1990-12-21 1.6 2.4 -1.6 -2.6 81.0- 8.0 4.3---- 0.3------------
1990-12-22 1.1 2.8 -0.2 -2.7 91.0- 6.3 0.7---- 0.0------------
1990-12-23 -1.2 -0.1 -2.9 -5.2 98.3- 7.3 1.0---- 0.0------------
1990-12-24 -2.3 1.5 -4.8 -7.3 78.0- 0.0 5.3---- 0.0------------
1990-12-25 -0.9 2.0 -3.3 -7.7 61.3- 0.0 6.0---- 0.0------------
1990-12-26 0.3 3.5 -2.5 -6.9 81.0- 2.7 1.7---- 0.0------------
1990-12-27 4.4 7.5 -0.7 -3.5 79.0- 5.0 3.0---- 0.0------------
1990-12-28 2.2 4.5 -0.4 -4.6 82.8- 3.7 2.0---- 0.0------------
1990-12-29 1.5 4.5 -2.5 -5.1 87.8- 5.3 2.3---- 3.8------------
1990-12-30 7.3 9.9 2.9 2.5 85.8- 7.0 2.7---- 0.6------------
1990-12-31 3.7 7.5 1.5 -1.7 90.5- 4.0 1.0---- 0.0------------
1991-01-01 2.6 6.1 0.0 -2.5 91.0- 7.3 1.7---- 0.0------------
1991-01-02 2.3 5.5 -2.0 -4.4 87.3- 5.3 2.0---- 6.5------------
1991-01-03 8.2 11.9 5.0 4.0 86.3- 7.3 5.7---- 1.2------------
1991-01-04 8.8 12.4 5.2 3.9 85.3- 6.3 2.0---- 1.0------------
1991-01-05 4.1 8.4 0.5 -2.3 89.0- 2.7 2.7---- 0.0------------
1991-01-06 4.7 8.4 -0.1 -2.5 75.0- 1.0 4.3---- 0.0------------
1991-01-07 3.3 6.8 0.1 -3.6 85.3- 6.0 0.7---- 0.0------------
1991-01-08 5.6 8.8 0.6 -3.0 81.3- 2.7 2.3---- 0.0------------
1991-01-09 5.8 9.7 0.8 -3.0 77.8- 6.3 1.7---- 0.0------------
1991-01-10 10.7 14.5 2.9 -0.4 70.8- 6.3 7.0---- 0.0------------
1991-01-11 9.6 13.7 8.6 4.5 77.3- 8.0 2.3---- 0.5------------
298.9 ms

 

Źródłem pochodzenia danych jest Instytut Meteorologii i Gospodarki Wodnej – Państwowy Instytut Badawczy. Dane Instytutu Meteorologii i Gospodarki Wodnej – Państwowego Instytutu Badawczego zostały przetworzone.

Dane źródłowe można odnaleźć na stronie https://dane.imgw.pl